Terminal Aerodrome Forecast
Issued by NWS

Home | Current Version | Previous Version | Text Only | Print | Product List | Glossary On
Versions: 1 2 3 4 5 6 7 8 9 10 11 12 13 14 15 16 17 18 19 20 21 22 23 24 25 26 27 28 29 30 31 32 33 34 35 36 37 38 39 40 41 42 43 44 45 46 47 48 49 50
291
FTUS44 KHGX 252003 AAA
TAFUTS
TAF AMD
KUTS 252003Z 2520/2618 36008KT P6SM VCTS BKN025CB OVC060
      TEMPO 2520/2523 1SM -TSRA BR BKN006CB
     FM260000 34006KT 6SM BR VCSH OVC012
     FM260400 01004KT 3SM BR OVC007
     FM261500 02008KT P6SM OVC015=

USA.gov is the U.S. government's official web portal to all federal, state and local government web resources and services.